Time;durP1;ratioP1;P1;durP2;ratioP2;P2;SDS_P1;SDS_P2;PMS_P1;PMS_P2;Temp;Humidity;BMP_temperature;BMP_pressure;BME280_temperature;BME280_humidity;BME280_pressure;Samples;Min_cycle;Max_cycle;Signal;HPM_P1;HPM_P2
2021/07/26 00:02:18;;;;;;;1999.90;999.90;;;21.50;99.90;;;;;;4883990;29;20419;-80
2021/07/26 00:04:43;;;;;;;1999.90;999.90;;;21.50;99.90;;;;;;4883962;29;20494;-81
2021/07/26 00:07:09;;;;;;;1999.90;999.90;;;21.50;99.90;;;;;;4883632;29;20461;-80
2021/07/26 00:09:36;;;;;;;1999.90;999.90;;;21.50;99.90;;;;;;4884098;29;20226;-80
2021/07/26 00:12:06;;;;;;;1999.90;999.90;;;21.60;99.90;;;;;;4882316;29;20174;-80
2021/07/26 00:14:32;;;;;;;1999.90;999.90;;;21.60;99.90;;;;;;4882534;29;20556;-80
2021/07/26 00:16:58;;;;;;;1999.90;999.90;;;21.60;99.90;;;;;;4882276;29;20439;-80
2021/07/26 00:19:24;;;;;;;1999.90;999.90;;;21.60;99.90;;;;;;4884241;29;20499;-80
2021/07/26 00:21:50;;;;;;;1999.90;999.90;;;21.60;99.90;;;;;;4882047;29;20171;-80
2021/07/26 00:24:19;;;;;;;1999.90;999.90;;;21.60;99.90;;;;;;4883148;29;20258;-80
2021/07/26 00:26:48;;;;;;;1999.90;999.90;;;21.60;99.90;;;;;;4883499;29;20462;-80
2021/07/26 00:29:13;;;;;;;1999.90;999.90;;;21.50;99.90;;;;;;4883726;29;20895;-80
2021/07/26 00:31:39;;;;;;;1999.90;999.90;;;21.50;99.90;;;;;;4883929;29;20440;-80
2021/07/26 00:34:21;;;;;;;1999.90;999.90;;;21.40;99.90;;;;;;4883314;29;20166;-80
2021/07/26 00:36:52;;;;;;;1999.90;999.90;;;21.40;99.90;;;;;;4897404;29;20191;-80
2021/07/26 00:39:21;;;;;;;1999.90;999.90;;;21.40;99.90;;;;;;4883248;29;20411;-80
2021/07/26 00:41:48;;;;;;;1999.90;999.90;;;21.40;99.90;;;;;;4882108;29;20513;-81
2021/07/26 00:44:16;;;;;;;1999.90;999.90;;;21.40;99.90;;;;;;4883412;29;20447;-81
2021/07/26 00:46:43;;;;;;;1999.90;999.90;;;21.40;99.90;;;;;;4883580;29;20431;-80
2021/07/26 00:49:11;;;;;;;1999.90;999.90;;;21.30;99.90;;;;;;4883294;29;20780;-80
2021/07/26 00:51:39;;;;;;;1999.90;999.90;;;21.30;99.90;;;;;;4883622;29;20422;-81
2021/07/26 00:54:06;;;;;;;1999.90;999.90;;;21.30;99.90;;;;;;4897538;29;20935;-80
2021/07/26 00:56:32;;;;;;;1999.90;999.90;;;21.30;99.90;;;;;;4882519;29;20437;-80
2021/07/26 00:58:58;;;;;;;1999.90;999.90;;;21.30;99.90;;;;;;4883272;29;20439;-80
2021/07/26 01:01:24;;;;;;;1999.90;999.90;;;21.30;99.90;;;;;;4882855;29;20444;-80
2021/07/26 01:03:50;;;;;;;1999.90;999.90;;;21.20;99.90;;;;;;4882572;29;20458;-80
2021/07/26 01:06:16;;;;;;;1999.90;999.90;;;21.20;99.90;;;;;;4881282;29;21108;-81
2021/07/26 01:08:42;;;;;;;1999.90;999.90;;;21.20;99.90;;;;;;4882708;29;20171;-81
2021/07/26 01:11:08;;;;;;;1999.90;999.90;;;21.20;99.90;;;;;;4881352;29;20538;-80
2021/07/26 01:13:35;;;;;;;1999.90;999.90;;;21.20;99.90;;;;;;4897214;29;20919;-81
2021/07/26 01:16:01;;;;;;;1999.90;999.90;;;21.20;99.90;;;;;;4882873;29;20438;-81
2021/07/26 01:18:27;;;;;;;1999.90;999.90;;;21.20;99.90;;;;;;4882791;29;20422;-81
2021/07/26 01:20:53;;;;;;;1999.90;999.90;;;21.20;99.90;;;;;;4881901;29;20415;-80
2021/07/26 01:23:19;;;;;;;1999.90;999.90;;;21.30;99.90;;;;;;4883139;29;20542;-80
2021/07/26 01:25:45;;;;;;;1999.90;999.90;;;21.30;99.90;;;;;;4882473;29;20265;-80
2021/07/26 01:28:14;;;;;;;1999.90;999.90;;;21.20;99.90;;;;;;4882484;29;20418;-80
2021/07/26 01:30:40;;;;;;;1999.90;999.90;;;21.20;99.90;;;;;;4881764;29;20170;-81
2021/07/26 01:33:10;;;;;;;1999.90;999.90;;;21.20;99.90;;;;;;4882414;29;20982;-81
2021/07/26 01:35:37;;;;;;;1999.90;999.90;;;21.20;99.90;;;;;;4882388;29;20494;-80
2021/07/26 01:38:03;;;;;;;1999.90;999.90;;;21.20;99.90;;;;;;4896853;29;20407;-81
2021/07/26 01:40:29;;;;;;;1999.90;999.90;;;21.10;99.90;;;;;;4881308;29;20438;-81
2021/07/26 01:43:02;;;;;;;1999.90;999.90;;;21.10;99.90;;;;;;4896727;29;20507;-81
2021/07/26 01:45:32;;;;;;;1999.90;999.90;;;21.10;99.90;;;;;;4882966;29;20830;-81
2021/07/26 01:48:21;;;;;;;1999.90;999.90;;;21.10;99.90;;;;;;4885986;29;20494;-81
2021/07/26 01:50:52;;;;;;;1999.90;999.90;;;21.10;99.90;;;;;;4885256;29;20491;-81
2021/07/26 01:53:19;;;;;;;1999.90;999.90;;;21.00;99.90;;;;;;4886367;29;20391;-81
2021/07/26 01:55:44;;;;;;;1999.90;999.90;;;21.00;99.90;;;;;;4886156;29;20427;-81
2021/07/26 01:58:11;;;;;;;1999.90;999.90;;;21.00;99.90;;;;;;4885465;29;20415;-81
2021/07/26 02:00:40;;;;;;;1999.90;999.90;;;20.90;99.90;;;;;;4886762;29;20175;-81
2021/07/26 02:03:05;;;;;;;1999.90;999.90;;;20.80;99.90;;;;;;4886157;29;20454;-81
2021/07/26 02:05:31;;;;;;;1999.90;999.90;;;20.90;99.90;;;;;;4900568;29;20419;-81
2021/07/26 02:07:56;;;;;;;1999.90;999.90;;;20.90;99.90;;;;;;4900635;29;20214;-81
2021/07/26 02:10:22;;;;;;;1999.90;999.90;;;20.80;99.90;;;;;;4886676;29;20228;-81
2021/07/26 02:12:48;;;;;;;1999.90;999.90;;;20.70;99.90;;;;;;4886672;29;20182;-81
2021/07/26 02:15:14;;;;;;;1999.90;999.90;;;20.60;99.90;;;;;;4884853;29;20262;-81
2021/07/26 02:17:39;;;;;;;1999.90;999.90;;;20.50;99.90;;;;;;4885715;29;20199;-81
2021/07/26 02:20:05;;;;;;;1999.90;999.90;;;20.60;99.90;;;;;;4886157;29;20168;-81
2021/07/26 02:22:31;;;;;;;1999.90;999.90;;;20.50;99.90;;;;;;4886157;29;20171;-81
2021/07/26 02:24:57;;;;;;;1999.90;999.90;;;20.50;99.90;;;;;;4900343;29;20953;-81
2021/07/26 02:27:23;;;;;;;1999.90;999.90;;;20.60;99.90;;;;;;4900007;29;20222;-81
2021/07/26 02:29:49;;;;;;;1999.90;999.90;;;20.60;99.90;;;;;;4885926;29;20479;-81
2021/07/26 02:32:14;;;;;;;1999.90;999.90;;;20.60;99.90;;;;;;4885570;29;20227;-81
2021/07/26 02:34:40;;;;;;;1999.90;999.90;;;20.60;99.90;;;;;;4884477;29;20184;-80
2021/07/26 02:37:06;;;;;;;1999.90;999.90;;;20.60;99.90;;;;;;4885427;29;20192;-81
2021/07/26 02:39:31;;;;;;;1999.90;999.90;;;20.60;99.90;;;;;;4899660;29;20205;-80
2021/07/26 02:41:57;;;;;;;1999.90;999.90;;;20.60;99.90;;;;;;4885456;29;20175;-81
2021/07/26 02:44:22;;;;;;;1999.90;999.90;;;20.50;99.90;;;;;;4885371;29;20202;-81
2021/07/26 02:46:48;;;;;;;1999.90;999.90;;;20.50;99.90;;;;;;4885660;29;20193;-80
2021/07/26 02:49:14;;;;;;;1999.90;999.90;;;20.40;99.90;;;;;;4885551;29;20180;-81
2021/07/26 02:51:39;;;;;;;1999.90;999.90;;;20.40;99.90;;;;;;4884740;29;20173;-80
2021/07/26 02:54:05;;;;;;;1999.90;999.90;;;20.40;99.90;;;;;;4885221;29;20207;-80
2021/07/26 02:56:31;;;;;;;1999.90;999.90;;;20.30;99.90;;;;;;4884825;29;20198;-81
2021/07/26 02:58:56;;;;;;;1999.90;999.90;;;20.40;99.90;;;;;;4884352;29;20175;-80
2021/07/26 03:01:22;;;;;;;1999.90;999.90;;;20.50;99.90;;;;;;4884706;29;20635;-80
2021/07/26 03:03:48;;;;;;;1999.90;999.90;;;20.50;99.90;;;;;;4885825;29;20283;-80
2021/07/26 03:06:17;;;;;;;1999.90;999.90;;;20.50;99.90;;;;;;4885037;29;20197;-80
2021/07/26 03:08:44;;;;;;;1999.90;999.90;;;20.50;99.90;;;;;;4884649;29;20165;-81
2021/07/26 03:11:10;;;;;;;1999.90;999.90;;;20.40;99.90;;;;;;4885025;29;20434;-81
2021/07/26 03:13:40;;;;;;;1999.90;999.90;;;20.40;99.90;;;;;;4883831;29;20987;-80
2021/07/26 03:16:08;;;;;;;1999.90;999.90;;;20.30;99.90;;;;;;4885293;29;20811;-80
2021/07/26 03:18:34;;;;;;;1999.90;999.90;;;20.20;99.90;;;;;;4883716;29;20422;-80
2021/07/26 03:21:00;;;;;;;1999.90;999.90;;;20.20;99.90;;;;;;4885032;29;20919;-80
2021/07/26 03:23:25;;;;;;;1999.90;999.90;;;20.30;99.90;;;;;;4950725;23;20501;-80
2021/07/26 03:25:51;;;;;;;1999.90;999.90;;;20.30;99.90;;;;;;4888451;29;20829;-80
2021/07/26 03:28:17;;;;;;;1999.90;999.90;;;20.20;99.90;;;;;;4888147;29;20173;-80
2021/07/26 03:30:43;;;;;;;1999.90;999.90;;;20.20;99.90;;;;;;4888774;29;20419;-80
2021/07/26 03:33:08;;;;;;;1999.90;999.90;;;20.20;99.90;;;;;;4887118;29;20178;-80
2021/07/26 03:35:34;;;;;;;1999.90;999.90;;;20.20;99.90;;;;;;4886609;29;20167;-80
2021/07/26 03:38:00;;;;;;;1999.90;999.90;;;20.20;99.90;;;;;;4903762;29;20178;-80
2021/07/26 03:40:26;;;;;;;1999.90;999.90;;;20.10;99.90;;;;;;4888712;29;20181;-80
2021/07/26 03:42:52;;;;;;;1999.90;999.90;;;20.10;99.90;;;;;;4887894;29;20452;-80
2021/07/26 03:45:20;;;;;;;1999.90;999.90;;;20.10;99.90;;;;;;4886302;29;20408;-80
2021/07/26 03:47:46;;;;;;;1999.90;999.90;;;20.10;99.90;;;;;;4885790;29;20675;-80
2021/07/26 03:50:13;;;;;;;1999.90;999.90;;;20.20;99.90;;;;;;4886231;29;20411;-80
2021/07/26 03:52:46;;;;;;;1999.90;999.90;;;20.20;99.90;;;;;;4903019;29;20512;-80
2021/07/26 03:55:36;;;;;;;1999.90;999.90;;;20.20;99.90;;;;;;4891157;29;20417;-81
2021/07/26 03:58:03;;;;;;;1999.90;999.90;;;20.20;99.90;;;;;;4883065;29;20493;-80
2021/07/26 04:00:30;;;;;;;1999.90;999.90;;;20.20;99.90;;;;;;4890792;29;20962;-81
2021/07/26 04:08:11;;;;;;;1999.90;999.90;;;20.20;99.90;;;;;;4888559;29;20422;-80
2021/07/26 04:10:39;;;;;;;1999.90;999.90;;;20.10;99.90;;;;;;4888349;29;20446;-81
2021/07/26 04:13:05;;;;;;;1999.90;999.90;;;20.10;99.90;;;;;;4887356;29;20464;-81
2021/07/26 04:15:30;;;;;;;1999.90;999.90;;;20.10;99.90;;;;;;4888221;29;20446;-80
2021/07/26 04:17:57;;;;;;;1999.90;999.90;;;20.10;99.90;;;;;;4890142;29;20204;-81
2021/07/26 04:20:23;;;;;;;1999.90;999.90;;;20.10;99.90;;;;;;4888304;29;20407;-80
2021/07/26 04:22:49;;;;;;;1999.90;999.90;;;20.10;99.90;;;;;;4902382;29;20593;-81
2021/07/26 04:25:15;;;;;;;1999.90;999.90;;;20.10;99.90;;;;;;4887831;29;20203;-80
2021/07/26 04:27:40;;;;;;;1999.90;999.90;;;20.10;99.90;;;;;;4888395;29;20187;-80
2021/07/26 04:30:07;;;;;;;1999.90;999.90;;;20.10;99.90;;;;;;4887937;29;20427;-80
2021/07/26 04:32:46;;;;;;;1999.90;999.90;;;20.00;99.90;;;;;;4889848;29;20184;-80
2021/07/26 04:35:16;;;;;;;1999.90;999.90;;;20.10;99.90;;;;;;4890636;29;20406;-80
2021/07/26 04:37:42;;;;;;;1999.90;999.90;;;20.10;99.90;;;;;;4887890;29;20964;-81
2021/07/26 04:40:09;;;;;;;1999.90;999.90;;;20.00;99.90;;;;;;4888728;29;20413;-81
2021/07/26 04:42:38;;;;;;;1999.90;999.90;;;20.00;99.90;;;;;;4888357;29;20429;-81
2021/07/26 04:45:06;;;;;;;1999.90;999.90;;;20.00;99.90;;;;;;4887596;29;20436;-81
2021/07/26 04:47:31;;;;;;;1999.90;999.90;;;20.00;99.90;;;;;;4888003;29;20953;-80
2021/07/26 04:49:57;;;;;;;1999.90;999.90;;;20.00;99.90;;;;;;4888483;29;20411;-81
2021/07/26 04:52:23;;;;;;;1999.90;999.90;;;20.10;99.90;;;;;;4887883;29;20174;-81
2021/07/26 04:54:49;;;;;;;1999.90;999.90;;;20.10;99.90;;;;;;4888842;29;20655;-81
2021/07/26 04:57:14;;;;;;;1999.90;999.90;;;20.10;99.90;;;;;;4889311;29;20220;-81
2021/07/26 04:59:40;;;;;;;1999.90;999.90;;;20.10;99.90;;;;;;4890638;29;20185;-81
2021/07/26 05:02:06;;;;;;;1999.90;999.90;;;20.10;99.90;;;;;;4902393;29;20270;-81
2021/07/26 05:04:32;;;;;;;1999.90;999.90;;;20.10;99.90;;;;;;4890732;29;20437;-80
2021/07/26 05:07:02;;;;;;;1999.90;999.90;;;20.10;99.90;;;;;;4887250;29;20590;-80
2021/07/26 05:09:28;;;;;;;1999.90;999.90;;;20.10;99.90;;;;;;4885812;29;20177;-80
2021/07/26 05:11:59;;;;;;;1999.90;999.90;;;20.20;99.90;;;;;;4886508;29;20520;-80
2021/07/26 05:14:24;;;;;;;1999.90;999.90;;;20.20;99.90;;;;;;4884788;29;20443;-80
2021/07/26 05:16:50;;;;;;;1999.90;999.90;;;20.20;99.90;;;;;;4886631;29;20431;-80
2021/07/26 05:19:16;;;;;;;1999.90;999.90;;;20.20;99.90;;;;;;4884483;29;20239;-80
2021/07/26 05:21:41;;;;;;;1999.90;999.90;;;20.20;99.90;;;;;;4883305;29;20617;-80
2021/07/26 05:24:07;;;;;;;1999.90;999.90;;;20.20;99.90;;;;;;4883007;29;20201;-80
2021/07/26 05:26:33;;;;;;;1999.90;999.90;;;20.30;99.90;;;;;;4884144;29;20198;-80
2021/07/26 05:28:58;;;;;;;1999.90;999.90;;;20.30;99.90;;;;;;4884079;29;20234;-80
2021/07/26 05:31:24;;;;;;;1999.90;999.90;;;20.30;99.90;;;;;;4884330;29;20177;-80
2021/07/26 05:33:49;;;;;;;1999.90;999.90;;;20.40;99.90;;;;;;4883570;29;20207;-80
2021/07/26 05:36:15;;;;;;;1999.90;999.90;;;20.30;99.90;;;;;;4883440;29;20186;-80
2021/07/26 05:38:41;;;;;;;1999.90;999.90;;;20.30;99.90;;;;;;4883527;29;20238;-80
2021/07/26 05:41:10;;;;;;;1999.90;999.90;;;20.30;99.90;;;;;;4898006;29;20309;-80
2021/07/26 05:43:35;;;;;;;1999.90;999.90;;;20.30;99.90;;;;;;4883852;29;20174;-80
2021/07/26 05:46:01;;;;;;;1999.90;999.90;;;20.30;99.90;;;;;;4882207;29;20829;-80
2021/07/26 05:48:27;;;;;;;1999.90;999.90;;;20.40;99.90;;;;;;4882565;29;20177;-80
2021/07/26 05:50:52;;;;;;;1999.90;999.90;;;20.50;99.90;;;;;;4883802;29;20168;-81
2021/07/26 05:53:18;;;;;;;1999.90;999.90;;;20.50;99.90;;;;;;4886729;29;20197;-81
2021/07/26 05:55:43;;;;;;;1999.90;999.90;;;20.60;99.90;;;;;;4886261;29;20243;-81
2021/07/26 05:58:09;;;;;;;1999.90;999.90;;;20.50;99.90;;;;;;4887461;29;20174;-81
2021/07/26 06:00:36;;;;;;;1999.90;999.90;;;20.60;99.90;;;;;;4886577;29;20191;-80
2021/07/26 06:03:02;;;;;;;1999.90;999.90;;;20.70;99.90;;;;;;4885265;29;20177;-80
2021/07/26 06:05:28;;;;;;;1999.90;999.90;;;20.80;99.90;;;;;;4884347;29;20929;-80
2021/07/26 06:07:54;;;;;;;1999.90;999.90;;;20.80;99.90;;;;;;4884216;29;20486;-80
2021/07/26 06:10:20;;;;;;;1999.90;999.90;;;20.80;99.90;;;;;;4883646;29;20448;-80
2021/07/26 06:12:46;;;;;;;1999.90;999.90;;;20.90;99.90;;;;;;4882944;29;20494;-80
2021/07/26 06:15:11;;;;;;;1999.90;999.90;;;21.00;99.90;;;;;;4882642;29;20260;-80
2021/07/26 06:17:37;;;;;;;1999.90;999.90;;;21.10;99.90;;;;;;4883652;29;20193;-80
2021/07/26 06:20:06;;;;;;;1999.90;999.90;;;21.10;99.90;;;;;;4882554;29;20168;-80
2021/07/26 06:22:31;;;;;;;1999.90;999.90;;;21.10;99.90;;;;;;4882912;29;20163;-80
2021/07/26 06:24:57;;;;;;;1999.90;999.90;;;21.20;99.90;;;;;;4886291;29;20446;-80
2021/07/26 06:27:23;;;;;;;1999.90;999.90;;;21.20;99.90;;;;;;4882372;29;20681;-80
2021/07/26 06:29:52;;;;;;;1999.90;999.90;;;21.20;99.90;;;;;;4882218;29;20167;-79
2021/07/26 06:32:18;;;;;;;1999.90;999.90;;;21.20;99.90;;;;;;4882425;29;20536;-80
2021/07/26 06:34:44;;;;;;;1999.90;999.90;;;21.20;99.90;;;;;;4885412;29;20446;-80
2021/07/26 06:37:10;;;;;;;1999.90;999.90;;;21.20;99.90;;;;;;4883862;29;20498;-79
2021/07/26 06:39:35;;;;;;;1999.90;999.90;;;21.10;99.90;;;;;;4885305;29;20177;-79
2021/07/26 06:42:01;;;;;;;1999.90;999.90;;;21.20;99.90;;;;;;4885874;29;20171;-79
2021/07/26 06:44:27;;;;;;;1999.90;999.90;;;21.20;99.90;;;;;;4885492;29;20253;-80
2021/07/26 06:46:52;;;;;;;1999.90;999.90;;;21.20;99.90;;;;;;4884735;29;20234;-80
2021/07/26 06:49:18;;;;;;;1999.90;999.90;;;21.20;99.90;;;;;;4885500;29;20235;-79
2021/07/26 06:51:44;;;;;;;1999.90;999.90;;;21.10;99.90;;;;;;4885872;29;20171;-80
2021/07/26 06:54:10;;;;;;;1999.90;999.90;;;21.10;99.90;;;;;;4884513;29;20206;-80
2021/07/26 06:56:35;;;;;;;1999.90;999.90;;;21.10;99.90;;;;;;4885336;29;20186;-79
2021/07/26 06:59:01;;;;;;;1999.90;999.90;;;21.00;99.90;;;;;;4883870;29;20170;-80
2021/07/26 07:01:27;;;;;;;1999.90;999.90;;;21.00;99.90;;;;;;4885263;29;20167;-80
2021/07/26 07:03:55;;;;;;;1999.90;999.90;;;21.00;99.90;;;;;;4884815;29;20173;-80
2021/07/26 07:06:23;;;;;;;1999.90;999.90;;;21.00;99.90;;;;;;4885815;29;20430;-80
2021/07/26 07:08:49;;;;;;;1999.90;999.90;;;21.00;99.90;;;;;;4899954;29;20479;-80
2021/07/26 07:11:18;;;;;;;1999.90;999.90;;;21.10;99.90;;;;;;4888419;29;20498;-80
2021/07/26 07:13:46;;;;;;;1999.90;999.90;;;21.10;99.90;;;;;;4885074;29;20281;-80
2021/07/26 07:16:18;;;;;;;1999.90;999.90;;;21.10;99.90;;;;;;4883574;29;20438;-79
2021/07/26 07:18:45;;;;;;;1999.90;999.90;;;21.10;99.90;;;;;;4883137;29;20429;-80
2021/07/26 07:21:25;;;;;;;1999.90;999.90;;;21.20;99.90;;;;;;4885516;29;20892;-80
2021/07/26 07:23:52;;;;;;;1999.90;999.90;;;21.20;99.90;;;;;;4883799;29;20435;-80
2021/07/26 07:26:19;;;;;;;1999.90;999.90;;;21.30;99.90;;;;;;4884652;29;20495;-80
2021/07/26 07:28:45;;;;;;;1999.90;999.90;;;21.30;99.90;;;;;;4884786;29;20416;-80
2021/07/26 07:31:13;;;;;;;1999.90;999.90;;;21.40;99.90;;;;;;4887021;29;20407;-80
2021/07/26 07:33:39;;;;;;;1999.90;999.90;;;21.50;99.90;;;;;;4883154;29;20462;-79
2021/07/26 07:36:06;;;;;;;1999.90;999.90;;;21.70;99.90;;;;;;4884273;29;20431;-80
2021/07/26 07:38:33;;;;;;;1999.90;999.90;;;21.90;99.90;;;;;;4884516;29;20391;-80
2021/07/26 07:40:59;;;;;;;1999.90;999.90;;;22.00;99.90;;;;;;4883369;29;20510;-80
2021/07/26 07:43:26;;;;;;;1999.90;999.90;;;22.10;99.90;;;;;;4884584;29;20422;-80
2021/07/26 07:45:54;;;;;;;1999.90;999.90;;;22.00;99.90;;;;;;4884212;29;20519;-80
2021/07/26 07:48:20;;;;;;;1999.90;999.90;;;22.00;99.90;;;;;;4885200;29;20419;-79
2021/07/26 07:50:46;;;;;;;1999.90;999.90;;;22.20;99.90;;;;;;4887125;29;20412;-80
2021/07/26 07:53:12;;;;;;;1999.90;999.90;;;22.30;99.90;;;;;;4884539;29;20451;-80
2021/07/26 07:55:38;;;;;;;1999.90;999.90;;;22.40;99.90;;;;;;4885374;29;20419;-80
2021/07/26 07:58:04;;;;;;;1999.90;999.90;;;22.50;99.90;;;;;;4886494;29;20190;-80
2021/07/26 08:00:29;;;;;;;1999.90;999.90;;;22.60;99.90;;;;;;4884432;29;20178;-80
2021/07/26 08:02:56;;;;;;;1999.90;999.90;;;22.60;99.90;;;;;;4883930;29;20179;-80
2021/07/26 08:05:21;;;;;;;1999.90;999.90;;;22.60;99.90;;;;;;4882834;29;20202;-80
2021/07/26 08:07:47;;;;;;;1999.90;999.90;;;22.70;99.90;;;;;;4883586;29;20412;-80
2021/07/26 08:10:15;;;;;;;1999.90;999.90;;;22.70;99.90;;;;;;4883584;29;20177;-80
2021/07/26 08:12:42;;;;;;;1999.90;999.90;;;22.80;99.90;;;;;;4883444;29;20163;-80
2021/07/26 08:15:08;;;;;;;1999.90;999.90;;;23.00;99.90;;;;;;4884750;29;20479;-80
2021/07/26 08:17:41;;;;;;;1999.90;999.90;;;23.10;99.90;;;;;;4883102;29;20464;-80
2021/07/26 08:20:11;;;;;;;1999.90;999.90;;;23.20;99.90;;;;;;4883681;29;20388;-80
2021/07/26 08:22:37;;;;;;;1999.90;999.90;;;23.40;99.90;;;;;;4883771;29;20427;-80
2021/07/26 08:25:08;;;;;;;1999.90;999.90;;;23.30;99.90;;;;;;4884301;29;20514;-80
2021/07/26 08:27:49;;;;;;;1999.90;999.90;;;23.40;99.90;;;;;;4884179;29;20490;-80
2021/07/26 08:30:25;;;;;;;1999.90;999.90;;;23.60;99.90;;;;;;4898885;29;20451;-80
2021/07/26 08:32:52;;;;;;;1999.90;999.90;;;23.80;99.90;;;;;;4883619;29;20526;-80
2021/07/26 08:35:18;;;;;;;1999.90;999.90;;;23.80;99.90;;;;;;4883215;29;20419;-80
2021/07/26 08:37:44;;;;;;;1999.90;999.90;;;23.90;99.90;;;;;;4883163;29;20459;-80
2021/07/26 08:40:11;;;;;;;1999.90;999.90;;;24.00;99.90;;;;;;4884875;29;20400;-80
2021/07/26 08:42:37;;;;;;;1999.90;999.90;;;24.10;99.90;;;;;;4883489;29;20456;-80
2021/07/26 08:45:03;;;;;;;1999.90;999.90;;;24.00;99.90;;;;;;4883039;29;20418;-80
2021/07/26 08:47:32;;;;;;;1999.90;999.90;;;24.00;99.90;;;;;;4885695;29;20210;-80
2021/07/26 08:49:59;;;;;;;1999.90;999.90;;;24.10;99.90;;;;;;4883097;29;20772;-80
2021/07/26 08:52:27;;;;;;;1999.90;999.90;;;24.00;99.90;;;;;;4881773;29;20808;-80
2021/07/26 08:54:55;;;;;;;1999.90;999.90;;;24.00;99.90;;;;;;4885558;29;20451;-80
2021/07/26 08:57:21;;;;;;;1999.90;999.90;;;24.00;99.90;;;;;;4882352;29;20436;-80
2021/07/26 08:59:46;;;;;;;1999.90;999.90;;;23.90;99.90;;;;;;4883184;29;20780;-80
2021/07/26 09:02:12;;;;;;;1999.90;999.90;;;24.00;99.90;;;;;;4883406;29;20415;-80
2021/07/26 09:04:38;;;;;;;1999.90;999.90;;;24.00;99.90;;;;;;4885251;29;20226;-80
2021/07/26 09:07:08;;;;;;;1999.90;999.90;;;23.90;99.90;;;;;;4883624;29;20470;-80
2021/07/26 09:09:47;;;;;;;1999.90;999.90;;;23.80;99.90;;;;;;4883558;29;20175;-80
2021/07/26 09:12:33;;;;;;;1999.90;999.90;;;23.70;99.90;;;;;;4882360;29;20422;-80
2021/07/26 09:15:00;;;;;;;1999.90;999.90;;;23.30;99.90;;;;;;4897349;29;20416;-80
2021/07/26 09:17:41;;;;;;;1999.90;999.90;;;23.20;99.90;;;;;;4882401;29;20772;-80
2021/07/26 09:20:08;;;;;;;1999.90;999.90;;;23.30;99.90;;;;;;4883547;29;20759;-80
2021/07/26 09:22:36;;;;;;;1999.90;999.90;;;23.20;99.90;;;;;;4884627;29;20875;-80
2021/07/26 09:25:22;;;;;;;1999.90;999.90;;;23.20;99.90;;;;;;4947154;23;20850;-81
2021/07/26 09:28:09;;;;;;;1999.90;999.90;;;23.10;99.90;;;;;;4863030;29;20470;-81
2021/07/26 09:30:43;;;;;;;1999.90;999.90;;;23.20;99.90;;;;;;4864345;29;20488;-81
2021/07/26 09:33:19;;;;;;;1999.90;999.90;;;23.20;99.90;;;;;;4861592;29;20446;-80
2021/07/26 09:35:45;;;;;;;1999.90;999.90;;;23.20;99.90;;;;;;4875535;29;20473;-79
2021/07/26 09:38:11;;;;;;;1999.90;999.90;;;23.30;99.90;;;;;;4860976;29;20453;-79
2021/07/26 09:40:37;;;;;;;1999.90;999.90;;;23.40;99.90;;;;;;4861183;29;20417;-79
2021/07/26 09:43:18;;;;;;;1999.90;999.90;;;23.50;99.90;;;;;;4861557;29;20419;-79
2021/07/26 09:45:43;;;;;;;1999.90;999.90;;;23.50;99.90;;;;;;4861393;29;20487;-79
2021/07/26 09:48:12;;;;;;;1999.90;999.90;;;23.40;99.90;;;;;;4860069;29;20503;-80
2021/07/26 09:50:48;;;;;;;1999.90;999.90;;;23.40;99.90;;;;;;4875686;29;20180;-79
2021/07/26 09:53:15;;;;;;;1999.90;999.90;;;23.50;99.90;;;;;;4861013;29;21000;-80
2021/07/26 09:55:42;;;;;;;1999.90;999.90;;;23.60;99.90;;;;;;4878268;29;20976;-80
2021/07/26 09:58:09;;;;;;;1999.90;999.90;;;23.90;99.90;;;;;;4863671;29;20814;-80
2021/07/26 10:00:36;;;;;;;1999.90;999.90;;;24.10;99.90;;;;;;4862670;29;20407;-81
2021/07/26 10:03:04;;;;;;;1999.90;999.90;;;24.20;99.90;;;;;;4863810;29;20436;-81
2021/07/26 10:05:32;;;;;;;1999.90;999.90;;;24.40;99.90;;;;;;4861337;29;20424;-81
2021/07/26 10:08:01;;;;;;;1999.90;999.90;;;24.30;99.90;;;;;;4865552;29;20415;-81
2021/07/26 10:10:27;;;;;;;1999.90;999.90;;;24.20;99.90;;;;;;4881252;29;20463;-81
2021/07/26 10:12:58;;;;;;;1999.90;999.90;;;24.20;99.90;;;;;;4865379;29;20460;-80
2021/07/26 10:15:27;;;;;;;1999.90;999.90;;;24.30;99.90;;;;;;4867060;29;20397;-80
2021/07/26 10:17:53;;;;;;;1999.90;999.90;;;24.50;99.90;;;;;;4867474;29;20437;-81
2021/07/26 10:20:34;;;;;;;1999.90;999.90;;;24.80;99.90;;;;;;4881210;29;20942;-81
2021/07/26 10:23:11;;;;;;;1999.90;999.90;;;25.10;96.10;;;;;;4883032;29;20629;-81
2021/07/26 10:25:56;;;;;;;1999.90;999.90;;;25.40;98.50;;;;;;4867907;29;21009;-81
2021/07/26 10:28:32;;;;;;;1999.90;999.90;;;25.30;92.10;;;;;;4867653;29;20470;-82
2021/07/26 10:30:58;;;;;;;1999.90;999.90;;;25.40;95.10;;;;;;4866773;29;20462;-81
2021/07/26 10:33:24;;;;;;;1999.90;999.90;;;25.50;91.80;;;;;;4867261;29;20808;-81
2021/07/26 10:35:54;;;;;;;1999.90;999.90;;;25.40;93.70;;;;;;4867323;29;20435;-81
2021/07/26 10:38:49;;;;;;;1999.90;999.90;;;25.40;92.10;;;;;;4867401;29;20391;-81
2021/07/26 10:41:46;;;;;;;1999.90;999.90;;;25.50;93.80;;;;;;4880653;29;20481;-81
2021/07/26 10:44:15;;;;;;;1999.90;999.90;;;25.40;92.00;;;;;;4880840;29;20482;-82
2021/07/26 10:46:56;;;;;;;1999.90;999.90;;;25.20;94.90;;;;;;4881410;29;20443;-82
2021/07/26 10:49:46;;;;;;;1999.90;999.90;;;25.50;95.60;;;;;;4866899;29;20926;-82
2021/07/26 10:52:44;;;;;;;1999.90;999.90;;;25.90;92.40;;;;;;4867155;29;20470;-82
2021/07/26 10:55:10;;;;;;;1999.90;999.90;;;26.10;83.20;;;;;;4866956;29;20435;-82
2021/07/26 10:57:39;;;;;;;1999.90;999.90;;;26.10;81.40;;;;;;4866368;29;20427;-81
2021/07/26 11:00:08;;;;;;;1999.90;999.90;;;26.10;83.50;;;;;;4866249;29;20178;-82
2021/07/26 11:02:35;;;;;;;1999.90;999.90;;;25.90;82.70;;;;;;4865833;29;20490;-81
2021/07/26 11:05:26;;;;;;;1999.90;999.90;;;25.70;83.20;;;;;;4866532;29;20386;-81
2021/07/26 11:08:13;;;;;;;1999.90;999.90;;;25.60;90.60;;;;;;4866628;29;20414;-82
2021/07/26 11:10:46;;;;;;;1999.90;999.90;;;25.80;85.10;;;;;;4881034;29;20453;-82
2021/07/26 11:13:13;;;;;;;1999.90;999.90;;;26.20;90.20;;;;;;4880532;29;20947;-82
2021/07/26 11:15:48;;;;;;;1999.90;999.90;;;26.50;88.20;;;;;;4865538;29;20419;-82
2021/07/26 11:18:18;;;;;;;1999.90;999.90;;;26.40;76.20;;;;;;4879561;29;20437;-81
2021/07/26 11:21:13;;;;;;;1999.90;999.90;;;26.30;72.20;;;;;;4879466;29;20519;-81
2021/07/26 11:23:43;;;;;;;1999.90;999.90;;;26.20;84.10;;;;;;4861509;29;20444;-81
2021/07/26 11:26:14;;;;;;;1999.90;999.90;;;26.20;82.80;;;;;;4865935;29;20803;-82
2021/07/26 11:28:43;;;;;;;1999.90;999.90;;;26.40;93.20;;;;;;4879856;29;20420;-81
2021/07/26 11:31:10;;;;;;;1999.90;999.90;;;26.80;82.30;;;;;;4866592;29;20444;-82
2021/07/26 11:33:36;;;;;;;1999.90;999.90;;;27.10;83.00;;;;;;4865950;29;20452;-81
2021/07/26 11:36:08;;;;;;;1999.90;999.90;;;27.30;63.20;;;;;;4866482;29;20480;-81
2021/07/26 11:38:54;;;;;;;1999.90;999.90;;;27.20;58.50;;;;;;4866782;29;20175;-82
2021/07/26 11:41:20;;;;;;;1999.90;999.90;;;27.00;59.50;;;;;;4864920;29;20409;-82
2021/07/26 11:43:48;;;;;;;1999.90;999.90;;;26.80;64.00;;;;;;4865187;29;20420;-82
2021/07/26 11:46:13;;;;;;;1999.90;999.90;;;27.00;62.80;;;;;;4865844;29;20435;-81
2021/07/26 11:48:39;;;;;;;1999.90;999.90;;;27.20;63.30;;;;;;4864579;29;20936;-81
2021/07/26 11:51:05;;;;;;;1999.90;999.90;;;27.10;68.50;;;;;;4866534;29;20168;-82
2021/07/26 11:53:30;;;;;;;1999.90;999.90;;;27.20;68.80;;;;;;4865880;29;20199;-81
2021/07/26 11:55:59;;;;;;;1999.90;999.90;;;27.40;60.90;;;;;;4864862;29;20297;-82
2021/07/26 11:58:28;;;;;;;1999.90;999.90;;;27.60;57.70;;;;;;4866353;29;20536;-82
2021/07/26 12:00:55;;;;;;;1999.90;999.90;;;27.90;59.00;;;;;;4865773;29;20412;-82
2021/07/26 12:03:24;;;;;;;1999.90;999.90;;;28.00;36.00;;;;;;4865183;29;20433;-82
2021/07/26 12:06:01;;;;;;;1999.90;999.90;;;28.00;38.90;;;;;;4865164;29;20424;-82
2021/07/26 12:08:30;;;;;;;1999.90;999.90;;;28.50;34.00;;;;;;4865043;29;20456;-82
2021/07/26 12:10:55;;;;;;;1999.90;999.90;;;28.50;27.50;;;;;;4863788;29;20417;-82